Aérodrome :
LOGIN :

S'inscrire | Disclaimer

   EN    FR    IT 

 










Légende :    VFR   VFR Marginal   IFR   IFR Intensif   IFR Très Intensif
Visi : 
Plafond : 
>= 8 km
>= 3000ft
5 à 8 km
1000 à 3000 ft
1500m à 5 km
500 à 1000 ft
800 à 1500m
200 à 500 ft
< 800m
< 200 ft
Symboles :   Orages  Brouillard  Fortes neiges  Fortes précipitations  Vent > 20 kt
SIGMETs :   Divers  Orages  Givrage  Turbulence  Onde Orograph.  Cendres Volcan.






- Altitude de l'aérodrome : 495 ft
- Code IATA : BUD


LHBP - Budapest Ferihegy

DERNIER METAR :
  • 300600Z 31018KT CAVOK 05/M02 Q1015 NOSIG

METARs EXPIRÉS :
  • 300530Z 31014KT CAVOK 05/M02 Q1015 NOSIG
  • 300500Z 30013KT CAVOK 04/M01 Q1015 NOSIG
  • 300430Z 30014KT CAVOK 04/M01 Q1014 NOSIG
  • 300400Z 30015KT CAVOK 04/M01 Q1014 NOSIG
  • 300330Z 30011KT CAVOK 04/M00 Q1014 NOSIG

TAF TAF LHBP
Valide du 30 à 06h jusqu'au 31 à 06h UTC


300515Z 3006/3106 31015G25KT CAVOK
TEMPO 3006/3014 -RA -SHRA SCT035 BKN090
BECMG 3010/3013 VRB03KT
TEMPO 3017/3022 07010KT -SHSN BKN030



MET'MAP, la Météo Aéronautique d'un coup d'oeil ! - Copyright ORBIFLY Décembre 2007 - Disclaimer

ORBIFLY MET'MAP TEAM :

Programmation & Développement : Alexandra Zaïnal
Sur une idée originale de : Baudouin d'Aumeries
Assistance à la programmation : Marc-Olivier Méhu
Soutien technique & logistique : Manuel Goepfert

Contact : metmap@orbifly.com




SOURCES & CREDITS :

   NOAA